sensor_id;sensor_type;location;lat;lon;timestamp;temperature;humidity
51486;DHT22;37565;51.352;6.412;2022-08-30T00:02:26;23.80;95.00
51486;DHT22;37565;51.352;6.412;2022-08-30T00:04:54;23.80;95.00
51486;DHT22;37565;51.352;6.412;2022-08-30T00:07:23;23.80;95.00
51486;DHT22;37565;51.352;6.412;2022-08-30T00:09:52;23.80;94.90
51486;DHT22;37565;51.352;6.412;2022-08-30T00:12:20;23.80;94.90
51486;DHT22;37565;51.352;6.412;2022-08-30T00:14:48;23.80;95.10
51486;DHT22;37565;51.352;6.412;2022-08-30T00:17:16;23.80;94.90
51486;DHT22;37565;51.352;6.412;2022-08-30T00:19:46;23.80;95.00
51486;DHT22;37565;51.352;6.412;2022-08-30T00:22:15;23.80;94.90
51486;DHT22;37565;51.352;6.412;2022-08-30T00:24:43;23.80;95.00
51486;DHT22;37565;51.352;6.412;2022-08-30T00:27:11;23.80;94.80
51486;DHT22;37565;51.352;6.412;2022-08-30T00:29:39;23.80;95.00
51486;DHT22;37565;51.352;6.412;2022-08-30T00:32:07;23.80;95.00
51486;DHT22;37565;51.352;6.412;2022-08-30T00:34:35;23.80;95.10
51486;DHT22;37565;51.352;6.412;2022-08-30T00:37:05;23.80;95.10
51486;DHT22;37565;51.352;6.412;2022-08-30T00:39:33;23.80;95.00
51486;DHT22;37565;51.352;6.412;2022-08-30T00:42:01;23.80;94.90
51486;DHT22;37565;51.352;6.412;2022-08-30T00:44:29;23.80;95.00
51486;DHT22;37565;51.352;6.412;2022-08-30T00:46:57;23.80;95.00
51486;DHT22;37565;51.352;6.412;2022-08-30T00:49:25;23.70;95.00
51486;DHT22;37565;51.352;6.412;2022-08-30T00:51:53;23.80;94.90
51486;DHT22;37565;51.352;6.412;2022-08-30T00:54:24;23.80;95.10
51486;DHT22;37565;51.352;6.412;2022-08-30T00:56:52;23.70;95.00
51486;DHT22;37565;51.352;6.412;2022-08-30T00:59:21;23.70;95.10
51486;DHT22;37565;51.352;6.412;2022-08-30T01:01:50;23.70;95.00
51486;DHT22;37565;51.352;6.412;2022-08-30T01:04:21;23.70;94.90
51486;DHT22;37565;51.352;6.412;2022-08-30T01:06:50;23.70;94.90
51486;DHT22;37565;51.352;6.412;2022-08-30T01:09:21;23.70;94.90
51486;DHT22;37565;51.352;6.412;2022-08-30T01:11:50;23.70;94.80
51486;DHT22;37565;51.352;6.412;2022-08-30T01:14:19;23.70;94.80
51486;DHT22;37565;51.352;6.412;2022-08-30T01:16:54;23.70;94.70
51486;DHT22;37565;51.352;6.412;2022-08-30T01:19:30;23.70;94.60
51486;DHT22;37565;51.352;6.412;2022-08-30T01:22:07;23.70;94.70
51486;DHT22;37565;51.352;6.412;2022-08-30T01:24:38;23.70;94.70
51486;DHT22;37565;51.352;6.412;2022-08-30T01:27:06;23.60;94.60
51486;DHT22;37565;51.352;6.412;2022-08-30T01:29:34;23.60;94.40
51486;DHT22;37565;51.352;6.412;2022-08-30T01:32:05;23.60;94.40
51486;DHT22;37565;51.352;6.412;2022-08-30T01:34:33;23.60;94.60
51486;DHT22;37565;51.352;6.412;2022-08-30T01:37:01;23.60;94.70
51486;DHT22;37565;51.352;6.412;2022-08-30T01:39:29;23.60;94.40
51486;DHT22;37565;51.352;6.412;2022-08-30T01:42:00;23.60;94.50
51486;DHT22;37565;51.352;6.412;2022-08-30T01:44:28;23.60;94.30
51486;DHT22;37565;51.352;6.412;2022-08-30T01:46:56;23.60;94.20
51486;DHT22;37565;51.352;6.412;2022-08-30T01:49:26;23.60;94.20
51486;DHT22;37565;51.352;6.412;2022-08-30T01:51:54;23.60;94.30
51486;DHT22;37565;51.352;6.412;2022-08-30T01:54:27;23.60;94.10
51486;DHT22;37565;51.352;6.412;2022-08-30T01:57:06;23.60;94.10
51486;DHT22;37565;51.352;6.412;2022-08-30T01:59:37;23.60;94.20
51486;DHT22;37565;51.352;6.412;2022-08-30T02:02:06;23.60;94.10
51486;DHT22;37565;51.352;6.412;2022-08-30T02:04:34;23.60;94.30
51486;DHT22;37565;51.352;6.412;2022-08-30T02:07:03;23.60;94.20
51486;DHT22;37565;51.352;6.412;2022-08-30T02:09:31;23.60;94.10
51486;DHT22;37565;51.352;6.412;2022-08-30T02:11:59;23.60;94.20
51486;DHT22;37565;51.352;6.412;2022-08-30T02:14:29;23.60;94.00
51486;DHT22;37565;51.352;6.412;2022-08-30T02:16:57;23.60;94.10
51486;DHT22;37565;51.352;6.412;2022-08-30T02:19:25;23.60;94.00
51486;DHT22;37565;51.352;6.412;2022-08-30T02:21:53;23.60;94.00
51486;DHT22;37565;51.352;6.412;2022-08-30T02:24:21;23.60;94.10
51486;DHT22;37565;51.352;6.412;2022-08-30T02:26:49;23.60;94.00
51486;DHT22;37565;51.352;6.412;2022-08-30T02:29:19;23.60;94.00
51486;DHT22;37565;51.352;6.412;2022-08-30T02:31:48;23.60;94.10
51486;DHT22;37565;51.352;6.412;2022-08-30T02:34:17;23.60;93.90
51486;DHT22;37565;51.352;6.412;2022-08-30T02:36:46;23.60;93.80
51486;DHT22;37565;51.352;6.412;2022-08-30T02:39:14;23.60;93.90
51486;DHT22;37565;51.352;6.412;2022-08-30T02:41:42;23.60;94.00
51486;DHT22;37565;51.352;6.412;2022-08-30T02:44:10;23.50;93.80
51486;DHT22;37565;51.352;6.412;2022-08-30T02:46:38;23.50;93.80
51486;DHT22;37565;51.352;6.412;2022-08-30T02:49:08;23.60;93.90
51486;DHT22;37565;51.352;6.412;2022-08-30T02:51:56;23.60;93.90
51486;DHT22;37565;51.352;6.412;2022-08-30T02:54:24;23.50;93.80
51486;DHT22;37565;51.352;6.412;2022-08-30T02:56:53;23.50;94.10
51486;DHT22;37565;51.352;6.412;2022-08-30T02:59:21;23.60;93.80
51486;DHT22;37565;51.352;6.412;2022-08-30T03:01:49;23.60;93.70
51486;DHT22;37565;51.352;6.412;2022-08-30T03:04:19;23.50;93.80
51486;DHT22;37565;51.352;6.412;2022-08-30T03:06:53;23.60;93.80
51486;DHT22;37565;51.352;6.412;2022-08-30T03:09:21;23.50;93.80
51486;DHT22;37565;51.352;6.412;2022-08-30T03:11:49;23.60;93.80
51486;DHT22;37565;51.352;6.412;2022-08-30T03:14:17;23.50;93.80
51486;DHT22;37565;51.352;6.412;2022-08-30T03:16:45;23.50;93.70
51486;DHT22;37565;51.352;6.412;2022-08-30T03:19:16;23.50;93.80
51486;DHT22;37565;51.352;6.412;2022-08-30T03:21:56;23.50;93.80
51486;DHT22;37565;51.352;6.412;2022-08-30T03:24:24;23.50;93.70
51486;DHT22;37565;51.352;6.412;2022-08-30T03:26:52;23.50;93.80
51486;DHT22;37565;51.352;6.412;2022-08-30T03:29:20;23.50;93.90
51486;DHT22;37565;51.352;6.412;2022-08-30T03:31:49;23.50;93.90
51486;DHT22;37565;51.352;6.412;2022-08-30T03:34:19;23.50;93.80
51486;DHT22;37565;51.352;6.412;2022-08-30T03:36:47;23.50;94.00
51486;DHT22;37565;51.352;6.412;2022-08-30T03:39:16;23.50;93.90
51486;DHT22;37565;51.352;6.412;2022-08-30T03:41:44;23.50;93.90
51486;DHT22;37565;51.352;6.412;2022-08-30T03:44:12;23.50;94.10
51486;DHT22;37565;51.352;6.412;2022-08-30T03:46:41;23.50;94.00
51486;DHT22;37565;51.352;6.412;2022-08-30T03:49:09;23.50;94.10
51486;DHT22;37565;51.352;6.412;2022-08-30T03:51:37;23.50;94.10
51486;DHT22;37565;51.352;6.412;2022-08-30T03:54:05;23.50;94.00
51486;DHT22;37565;51.352;6.412;2022-08-30T03:56:34;23.50;94.10
51486;DHT22;37565;51.352;6.412;2022-08-30T03:59:03;23.50;94.10
51486;DHT22;37565;51.352;6.412;2022-08-30T04:01:32;23.50;94.10
51486;DHT22;37565;51.352;6.412;2022-08-30T04:04:00;23.50;94.10
51486;DHT22;37565;51.352;6.412;2022-08-30T04:06:29;23.50;94.10
51486;DHT22;37565;51.352;6.412;2022-08-30T04:08:57;23.50;94.20
51486;DHT22;37565;51.352;6.412;2022-08-30T04:11:25;23.50;94.10
51486;DHT22;37565;51.352;6.412;2022-08-30T04:13:54;23.50;94.10
51486;DHT22;37565;51.352;6.412;2022-08-30T04:16:23;23.50;94.20
51486;DHT22;37565;51.352;6.412;2022-08-30T04:18:51;23.50;94.10
51486;DHT22;37565;51.352;6.412;2022-08-30T04:21:20;23.40;94.10
51486;DHT22;37565;51.352;6.412;2022-08-30T04:23:47;23.50;94.20
51486;DHT22;37565;51.352;6.412;2022-08-30T04:26:15;23.40;94.10
51486;DHT22;37565;51.352;6.412;2022-08-30T04:28:43;23.50;94.20
51486;DHT22;37565;51.352;6.412;2022-08-30T04:31:16;23.40;94.30
51486;DHT22;37565;51.352;6.412;2022-08-30T04:33:45;23.50;94.40
51486;DHT22;37565;51.352;6.412;2022-08-30T04:36:14;23.50;94.40
51486;DHT22;37565;51.352;6.412;2022-08-30T04:38:42;23.50;94.40
51486;DHT22;37565;51.352;6.412;2022-08-30T04:41:12;23.50;94.70
51486;DHT22;37565;51.352;6.412;2022-08-30T04:43:42;23.50;94.50
51486;DHT22;37565;51.352;6.412;2022-08-30T04:46:12;23.40;94.40
51486;DHT22;37565;51.352;6.412;2022-08-30T04:48:41;23.40;94.40
51486;DHT22;37565;51.352;6.412;2022-08-30T04:51:12;23.40;94.40
51486;DHT22;37565;51.352;6.412;2022-08-30T04:53:41;23.40;94.50
51486;DHT22;37565;51.352;6.412;2022-08-30T04:56:11;23.40;94.40
51486;DHT22;37565;51.352;6.412;2022-08-30T04:58:42;23.40;94.30
51486;DHT22;37565;51.352;6.412;2022-08-30T05:01:12;23.40;94.30
51486;DHT22;37565;51.352;6.412;2022-08-30T05:03:45;23.40;94.70
51486;DHT22;37565;51.352;6.412;2022-08-30T05:06:14;23.40;94.50
51486;DHT22;37565;51.352;6.412;2022-08-30T05:08:43;23.40;94.60
51486;DHT22;37565;51.352;6.412;2022-08-30T05:11:13;23.40;94.50
51486;DHT22;37565;51.352;6.412;2022-08-30T05:13:41;23.40;94.60
51486;DHT22;37565;51.352;6.412;2022-08-30T05:16:10;23.40;94.50
51486;DHT22;37565;51.352;6.412;2022-08-30T05:18:43;23.40;94.50
51486;DHT22;37565;51.352;6.412;2022-08-30T05:21:15;23.40;94.50
51486;DHT22;37565;51.352;6.412;2022-08-30T05:23:43;23.40;94.50
51486;DHT22;37565;51.352;6.412;2022-08-30T05:26:13;23.40;94.00
51486;DHT22;37565;51.352;6.412;2022-08-30T05:28:42;23.40;94.40
51486;DHT22;37565;51.352;6.412;2022-08-30T05:31:14;23.30;94.10
51486;DHT22;37565;51.352;6.412;2022-08-30T05:33:43;23.20;93.80
51486;DHT22;37565;51.352;6.412;2022-08-30T05:36:15;23.10;93.50
51486;DHT22;37565;51.352;6.412;2022-08-30T05:38:43;23.20;93.70
51486;DHT22;37565;51.352;6.412;2022-08-30T05:41:12;23.10;93.40
51486;DHT22;37565;51.352;6.412;2022-08-30T05:43:41;23.10;93.10
51486;DHT22;37565;51.352;6.412;2022-08-30T05:46:11;23.10;92.90
51486;DHT22;37565;51.352;6.412;2022-08-30T05:48:40;23.10;92.90
51486;DHT22;37565;51.352;6.412;2022-08-30T05:51:10;23.10;92.80
51486;DHT22;37565;51.352;6.412;2022-08-30T05:53:40;23.10;92.80
51486;DHT22;37565;51.352;6.412;2022-08-30T05:56:12;23.10;92.70
51486;DHT22;37565;51.352;6.412;2022-08-30T05:58:40;23.10;92.60
51486;DHT22;37565;51.352;6.412;2022-08-30T06:01:18;23.10;92.60
51486;DHT22;37565;51.352;6.412;2022-08-30T06:03:46;23.10;92.30
51486;DHT22;37565;51.352;6.412;2022-08-30T06:06:15;23.10;92.50
51486;DHT22;37565;51.352;6.412;2022-08-30T06:08:44;23.10;92.50
51486;DHT22;37565;51.352;6.412;2022-08-30T06:11:19;23.10;92.80
51486;DHT22;37565;51.352;6.412;2022-08-30T06:13:48;23.10;92.50
51486;DHT22;37565;51.352;6.412;2022-08-30T06:16:18;23.10;92.50
51486;DHT22;37565;51.352;6.412;2022-08-30T06:18:47;23.10;92.50
51486;DHT22;37565;51.352;6.412;2022-08-30T06:21:16;23.10;92.60
51486;DHT22;37565;51.352;6.412;2022-08-30T06:23:46;23.10;92.60
51486;DHT22;37565;51.352;6.412;2022-08-30T06:26:14;23.10;92.60
51486;DHT22;37565;51.352;6.412;2022-08-30T06:28:43;23.00;92.60
51486;DHT22;37565;51.352;6.412;2022-08-30T06:31:13;23.10;92.60
51486;DHT22;37565;51.352;6.412;2022-08-30T06:33:42;23.00;92.60
51486;DHT22;37565;51.352;6.412;2022-08-30T06:36:14;23.00;92.60
51486;DHT22;37565;51.352;6.412;2022-08-30T06:38:42;23.00;92.70
51486;DHT22;37565;51.352;6.412;2022-08-30T06:41:14;23.00;92.90
51486;DHT22;37565;51.352;6.412;2022-08-30T06:43:44;23.00;92.70
51486;DHT22;37565;51.352;6.412;2022-08-30T06:46:17;23.00;92.80
51486;DHT22;37565;51.352;6.412;2022-08-30T06:48:45;23.10;92.80
51486;DHT22;37565;51.352;6.412;2022-08-30T06:51:18;23.00;92.80
51486;DHT22;37565;51.352;6.412;2022-08-30T06:53:46;23.00;92.90
51486;DHT22;37565;51.352;6.412;2022-08-30T06:56:17;23.00;92.90
51486;DHT22;37565;51.352;6.412;2022-08-30T06:58:46;23.00;92.90
51486;DHT22;37565;51.352;6.412;2022-08-30T07:01:19;23.00;92.80
51486;DHT22;37565;51.352;6.412;2022-08-30T07:03:48;23.00;92.90
51486;DHT22;37565;51.352;6.412;2022-08-30T07:06:19;23.00;92.90
51486;DHT22;37565;51.352;6.412;2022-08-30T07:08:47;23.00;92.90
51486;DHT22;37565;51.352;6.412;2022-08-30T07:11:28;23.00;92.90
51486;DHT22;37565;51.352;6.412;2022-08-30T07:13:59;23.10;92.90
51486;DHT22;37565;51.352;6.412;2022-08-30T07:16:27;23.00;93.00
51486;DHT22;37565;51.352;6.412;2022-08-30T07:18:56;23.00;92.90
51486;DHT22;37565;51.352;6.412;2022-08-30T07:21:26;23.00;92.90
51486;DHT22;37565;51.352;6.412;2022-08-30T07:23:55;23.00;93.10
51486;DHT22;37565;51.352;6.412;2022-08-30T07:26:31;23.00;93.20
51486;DHT22;37565;51.352;6.412;2022-08-30T07:28:59;23.00;93.20
51486;DHT22;37565;51.352;6.412;2022-08-30T07:31:28;23.00;93.30
51486;DHT22;37565;51.352;6.412;2022-08-30T07:33:56;23.00;93.40
51486;DHT22;37565;51.352;6.412;2022-08-30T07:36:24;23.00;93.40
51486;DHT22;37565;51.352;6.412;2022-08-30T07:38:52;23.00;93.40
51486;DHT22;37565;51.352;6.412;2022-08-30T07:41:21;23.00;93.50
51486;DHT22;37565;51.352;6.412;2022-08-30T07:43:52;23.00;93.50
51486;DHT22;37565;51.352;6.412;2022-08-30T07:46:21;23.00;93.50
51486;DHT22;37565;51.352;6.412;2022-08-30T07:48:49;23.00;93.60
51486;DHT22;37565;51.352;6.412;2022-08-30T07:51:22;23.00;93.60
51486;DHT22;37565;51.352;6.412;2022-08-30T07:53:50;23.00;93.60
51486;DHT22;37565;51.352;6.412;2022-08-30T07:56:19;23.10;93.60
51486;DHT22;37565;51.352;6.412;2022-08-30T07:58:47;23.10;93.60
51486;DHT22;37565;51.352;6.412;2022-08-30T08:01:17;23.10;93.60
51486;DHT22;37565;51.352;6.412;2022-08-30T08:03:49;23.10;93.60
51486;DHT22;37565;51.352;6.412;2022-08-30T08:06:20;23.10;93.60
51486;DHT22;37565;51.352;6.412;2022-08-30T08:08:49;23.10;93.70
51486;DHT22;37565;51.352;6.412;2022-08-30T08:11:20;23.20;93.70
51486;DHT22;37565;51.352;6.412;2022-08-30T08:13:51;23.20;93.70
51486;DHT22;37565;51.352;6.412;2022-08-30T08:16:23;23.20;93.90
51486;DHT22;37565;51.352;6.412;2022-08-30T08:18:51;23.20;94.00
51486;DHT22;37565;51.352;6.412;2022-08-30T08:21:19;23.20;94.20
51486;DHT22;37565;51.352;6.412;2022-08-30T08:23:47;23.20;94.50
51486;DHT22;37565;51.352;6.412;2022-08-30T08:26:16;23.20;94.70
51486;DHT22;37565;51.352;6.412;2022-08-30T08:28:46;23.20;94.70
51486;DHT22;37565;51.352;6.412;2022-08-30T08:31:15;23.20;94.80
51486;DHT22;37565;51.352;6.412;2022-08-30T08:33:45;23.30;95.00
51486;DHT22;37565;51.352;6.412;2022-08-30T08:36:15;23.30;95.00
51486;DHT22;37565;51.352;6.412;2022-08-30T08:38:44;23.30;95.10
51486;DHT22;37565;51.352;6.412;2022-08-30T08:41:27;23.30;95.60
51486;DHT22;37565;51.352;6.412;2022-08-30T08:43:58;23.30;95.90
51486;DHT22;37565;51.352;6.412;2022-08-30T08:46:29;23.30;96.60
51486;DHT22;37565;51.352;6.412;2022-08-30T08:49:04;23.30;96.40
51486;DHT22;37565;51.352;6.412;2022-08-30T08:51:35;23.40;96.60
51486;DHT22;37565;51.352;6.412;2022-08-30T08:54:26;23.40;96.70
51486;DHT22;37565;51.352;6.412;2022-08-30T08:56:58;23.40;97.00
51486;DHT22;37565;51.352;6.412;2022-08-30T08:59:28;23.40;97.20
51486;DHT22;37565;51.352;6.412;2022-08-30T09:01:58;23.40;97.30
51486;DHT22;37565;51.352;6.412;2022-08-30T09:04:34;23.40;97.50
51486;DHT22;37565;51.352;6.412;2022-08-30T09:07:06;23.40;97.40
51486;DHT22;37565;51.352;6.412;2022-08-30T09:09:39;23.40;97.50
51486;DHT22;37565;51.352;6.412;2022-08-30T09:12:10;23.50;97.80
51486;DHT22;37565;51.352;6.412;2022-08-30T09:14:42;23.50;97.80
51486;DHT22;37565;51.352;6.412;2022-08-30T09:17:13;23.50;97.70
51486;DHT22;37565;51.352;6.412;2022-08-30T09:19:57;23.60;97.70
51486;DHT22;37565;51.352;6.412;2022-08-30T09:22:32;23.60;97.70
51486;DHT22;37565;51.352;6.412;2022-08-30T09:25:07;23.60;97.70
51486;DHT22;37565;51.352;6.412;2022-08-30T09:27:38;23.60;97.50
51486;DHT22;37565;51.352;6.412;2022-08-30T09:30:08;23.60;97.40
51486;DHT22;37565;51.352;6.412;2022-08-30T09:32:42;23.60;97.40
51486;DHT22;37565;51.352;6.412;2022-08-30T09:35:17;23.60;97.60
51486;DHT22;37565;51.352;6.412;2022-08-30T09:37:52;23.60;97.70
51486;DHT22;37565;51.352;6.412;2022-08-30T09:40:24;23.60;97.60
51486;DHT22;37565;51.352;6.412;2022-08-30T09:43:18;23.60;97.40
51486;DHT22;37565;51.352;6.412;2022-08-30T09:48:33;23.60;95.40
51486;DHT22;37565;51.352;6.412;2022-08-30T09:51:27;23.60;94.30
51486;DHT22;37565;51.352;6.412;2022-08-30T09:54:07;23.60;93.60
51486;DHT22;37565;51.352;6.412;2022-08-30T09:56:53;23.60;92.60
51486;DHT22;37565;51.352;6.412;2022-08-30T09:59:32;23.60;92.90
51486;DHT22;37565;51.352;6.412;2022-08-30T10:02:15;23.70;92.40
51486;DHT22;37565;51.352;6.412;2022-08-30T10:04:56;23.60;92.10
51486;DHT22;37565;51.352;6.412;2022-08-30T10:07:36;23.70;91.40
51486;DHT22;37565;51.352;6.412;2022-08-30T10:10:14;23.70;91.10
51486;DHT22;37565;51.352;6.412;2022-08-30T10:12:50;23.70;91.50
51486;DHT22;37565;51.352;6.412;2022-08-30T10:15:25;23.70;91.30
51486;DHT22;37565;51.352;6.412;2022-08-30T10:18:05;23.80;91.30
51486;DHT22;37565;51.352;6.412;2022-08-30T10:20:40;23.80;91.20
51486;DHT22;37565;51.352;6.412;2022-08-30T10:23:15;23.80;91.20
51486;DHT22;37565;51.352;6.412;2022-08-30T10:25:50;23.80;91.50
51486;DHT22;37565;51.352;6.412;2022-08-30T10:28:27;23.80;91.50
51486;DHT22;37565;51.352;6.412;2022-08-30T10:31:01;23.80;90.60
51486;DHT22;37565;51.352;6.412;2022-08-30T10:33:33;23.80;90.50
51486;DHT22;37565;51.352;6.412;2022-08-30T10:36:10;23.80;90.50
51486;DHT22;37565;51.352;6.412;2022-08-30T10:38:43;23.80;90.70
51486;DHT22;37565;51.352;6.412;2022-08-30T10:41:21;23.90;90.90
51486;DHT22;37565;51.352;6.412;2022-08-30T10:43:56;23.90;91.10
51486;DHT22;37565;51.352;6.412;2022-08-30T10:46:32;23.90;90.10
51486;DHT22;37565;51.352;6.412;2022-08-30T10:49:03;23.80;90.70
51486;DHT22;37565;51.352;6.412;2022-08-30T10:51:37;23.90;90.60
51486;DHT22;37565;51.352;6.412;2022-08-30T10:54:14;23.90;90.30
51486;DHT22;37565;51.352;6.412;2022-08-30T10:56:47;23.90;90.20
51486;DHT22;37565;51.352;6.412;2022-08-30T10:59:17;23.90;89.30
51486;DHT22;37565;51.352;6.412;2022-08-30T11:05:11;23.90;89.60
51486;DHT22;37565;51.352;6.412;2022-08-30T11:07:48;23.90;90.40
51486;DHT22;37565;51.352;6.412;2022-08-30T11:10:30;23.90;88.60
51486;DHT22;37565;51.352;6.412;2022-08-30T11:13:07;23.90;89.10
51486;DHT22;37565;51.352;6.412;2022-08-30T11:15:52;23.90;87.10
51486;DHT22;37565;51.352;6.412;2022-08-30T11:18:27;24.00;86.10
51486;DHT22;37565;51.352;6.412;2022-08-30T11:21:18;24.00;85.90
51486;DHT22;37565;51.352;6.412;2022-08-30T11:24:00;24.00;86.40
51486;DHT22;37565;51.352;6.412;2022-08-30T11:26:58;24.00;86.90
51486;DHT22;37565;51.352;6.412;2022-08-30T11:29:39;24.00;87.30
51486;DHT22;37565;51.352;6.412;2022-08-30T11:35:40;24.00;86.10
51486;DHT22;37565;51.352;6.412;2022-08-30T11:41:11;24.00;85.60
51486;DHT22;37565;51.352;6.412;2022-08-30T11:43:51;24.00;86.50
51486;DHT22;37565;51.352;6.412;2022-08-30T11:46:36;24.00;87.20
51486;DHT22;37565;51.352;6.412;2022-08-30T11:49:38;24.00;88.00
51486;DHT22;37565;51.352;6.412;2022-08-30T11:58:19;24.00;89.30
51486;DHT22;37565;51.352;6.412;2022-08-30T12:01:14;24.00;90.00
51486;DHT22;37565;51.352;6.412;2022-08-30T12:04:06;24.00;90.10
51486;DHT22;37565;51.352;6.412;2022-08-30T12:06:49;24.00;90.30
51486;DHT22;37565;51.352;6.412;2022-08-30T12:12:51;24.00;90.50
51486;DHT22;37565;51.352;6.412;2022-08-30T12:18:14;24.00;90.60
51486;DHT22;37565;51.352;6.412;2022-08-30T12:23:37;24.10;90.80
51486;DHT22;37565;51.352;6.412;2022-08-30T12:26:14;24.10;90.90
51486;DHT22;37565;51.352;6.412;2022-08-30T12:28:46;24.10;90.80
51486;DHT22;37565;51.352;6.412;2022-08-30T12:31:19;24.10;91.10
51486;DHT22;37565;51.352;6.412;2022-08-30T12:33:53;24.10;91.40
51486;DHT22;37565;51.352;6.412;2022-08-30T12:36:33;24.10;91.50
51486;DHT22;37565;51.352;6.412;2022-08-30T12:39:10;24.10;91.60
51486;DHT22;37565;51.352;6.412;2022-08-30T12:41:38;24.00;91.60
51486;DHT22;37565;51.352;6.412;2022-08-30T12:44:13;24.00;91.60
51486;DHT22;37565;51.352;6.412;2022-08-30T12:46:42;24.00;91.70
51486;DHT22;37565;51.352;6.412;2022-08-30T12:49:15;24.00;91.70
51486;DHT22;37565;51.352;6.412;2022-08-30T12:51:44;24.00;91.80
51486;DHT22;37565;51.352;6.412;2022-08-30T12:54:17;24.00;91.90
51486;DHT22;37565;51.352;6.412;2022-08-30T12:56:59;24.00;91.90
51486;DHT22;37565;51.352;6.412;2022-08-30T12:59:51;24.00;91.90
51486;DHT22;37565;51.352;6.412;2022-08-30T13:02:26;24.00;91.90
51486;DHT22;37565;51.352;6.412;2022-08-30T13:04:57;24.00;91.90
51486;DHT22;37565;51.352;6.412;2022-08-30T13:07:30;24.00;92.00
51486;DHT22;37565;51.352;6.412;2022-08-30T13:10:05;24.00;91.80
51486;DHT22;37565;51.352;6.412;2022-08-30T13:12:38;24.00;92.10
51486;DHT22;37565;51.352;6.412;2022-08-30T13:15:12;24.00;92.00
51486;DHT22;37565;51.352;6.412;2022-08-30T13:17:42;24.00;92.10
51486;DHT22;37565;51.352;6.412;2022-08-30T13:20:23;24.00;92.10
51486;DHT22;37565;51.352;6.412;2022-08-30T13:23:02;24.00;92.00
51486;DHT22;37565;51.352;6.412;2022-08-30T13:25:30;24.10;92.20
51486;DHT22;37565;51.352;6.412;2022-08-30T13:28:00;24.00;92.20
51486;DHT22;37565;51.352;6.412;2022-08-30T13:30:28;24.00;92.20
51486;DHT22;37565;51.352;6.412;2022-08-30T13:32:57;24.00;92.20
51486;DHT22;37565;51.352;6.412;2022-08-30T13:35:30;24.00;92.20
51486;DHT22;37565;51.352;6.412;2022-08-30T13:38:00;24.00;92.20
51486;DHT22;37565;51.352;6.412;2022-08-30T13:40:29;24.00;92.20
51486;DHT22;37565;51.352;6.412;2022-08-30T13:42:58;24.00;92.30
51486;DHT22;37565;51.352;6.412;2022-08-30T13:45:26;24.00;92.30
51486;DHT22;37565;51.352;6.412;2022-08-30T13:48:11;24.00;92.30
51486;DHT22;37565;51.352;6.412;2022-08-30T13:50:44;24.00;92.40
51486;DHT22;37565;51.352;6.412;2022-08-30T13:53:12;24.10;92.40
51486;DHT22;37565;51.352;6.412;2022-08-30T13:55:41;24.10;92.40
51486;DHT22;37565;51.352;6.412;2022-08-30T13:58:10;24.00;92.40
51486;DHT22;37565;51.352;6.412;2022-08-30T14:00:39;24.00;92.50
51486;DHT22;37565;51.352;6.412;2022-08-30T14:03:09;24.00;92.40
51486;DHT22;37565;51.352;6.412;2022-08-30T14:05:37;24.00;92.40
51486;DHT22;37565;51.352;6.412;2022-08-30T14:08:21;24.00;92.50
51486;DHT22;37565;51.352;6.412;2022-08-30T14:11:09;24.00;92.40
51486;DHT22;37565;51.352;6.412;2022-08-30T14:13:39;24.00;92.40
51486;DHT22;37565;51.352;6.412;2022-08-30T14:16:28;24.00;92.50
51486;DHT22;37565;51.352;6.412;2022-08-30T14:18:58;24.00;92.50
51486;DHT22;37565;51.352;6.412;2022-08-30T14:21:27;24.00;92.60
51486;DHT22;37565;51.352;6.412;2022-08-30T14:23:57;24.00;92.50
51486;DHT22;37565;51.352;6.412;2022-08-30T14:26:28;24.00;92.50
51486;DHT22;37565;51.352;6.412;2022-08-30T14:28:58;24.00;92.60
51486;DHT22;37565;51.352;6.412;2022-08-30T14:31:27;24.00;92.90
51486;DHT22;37565;51.352;6.412;2022-08-30T14:33:58;24.00;92.50
51486;DHT22;37565;51.352;6.412;2022-08-30T14:36:26;24.10;92.60
51486;DHT22;37565;51.352;6.412;2022-08-30T14:38:54;24.10;92.60
51486;DHT22;37565;51.352;6.412;2022-08-30T14:41:25;24.10;92.50
51486;DHT22;37565;51.352;6.412;2022-08-30T14:43:53;24.10;92.50
51486;DHT22;37565;51.352;6.412;2022-08-30T14:46:21;24.10;92.60
51486;DHT22;37565;51.352;6.412;2022-08-30T14:48:52;24.10;92.60
51486;DHT22;37565;51.352;6.412;2022-08-30T14:51:21;24.10;92.60
51486;DHT22;37565;51.352;6.412;2022-08-30T14:53:51;24.10;92.60
51486;DHT22;37565;51.352;6.412;2022-08-30T14:56:20;24.10;92.60
51486;DHT22;37565;51.352;6.412;2022-08-30T14:58:53;24.10;92.60
51486;DHT22;37565;51.352;6.412;2022-08-30T15:01:26;24.10;92.60
51486;DHT22;37565;51.352;6.412;2022-08-30T15:03:55;24.10;92.60
51486;DHT22;37565;51.352;6.412;2022-08-30T15:06:24;24.10;92.40
51486;DHT22;37565;51.352;6.412;2022-08-30T15:08:52;24.10;92.70
51486;DHT22;37565;51.352;6.412;2022-08-30T15:11:22;24.10;92.60
51486;DHT22;37565;51.352;6.412;2022-08-30T15:13:53;24.10;92.60
51486;DHT22;37565;51.352;6.412;2022-08-30T15:16:23;24.10;92.60
51486;DHT22;37565;51.352;6.412;2022-08-30T15:18:52;24.10;92.90
51486;DHT22;37565;51.352;6.412;2022-08-30T15:21:22;24.20;92.60
51486;DHT22;37565;51.352;6.412;2022-08-30T15:23:51;24.20;92.60
51486;DHT22;37565;51.352;6.412;2022-08-30T15:26:19;24.20;92.60
51486;DHT22;37565;51.352;6.412;2022-08-30T15:28:47;24.20;92.70
51486;DHT22;37565;51.352;6.412;2022-08-30T15:31:17;24.10;92.60
51486;DHT22;37565;51.352;6.412;2022-08-30T15:33:46;24.20;92.70
51486;DHT22;37565;51.352;6.412;2022-08-30T15:36:15;24.10;92.60
51486;DHT22;37565;51.352;6.412;2022-08-30T15:38:43;24.20;92.70
51486;DHT22;37565;51.352;6.412;2022-08-30T15:41:12;24.20;93.00
51486;DHT22;37565;51.352;6.412;2022-08-30T15:43:40;24.20;92.70
51486;DHT22;37565;51.352;6.412;2022-08-30T15:46:19;24.20;92.70
51486;DHT22;37565;51.352;6.412;2022-08-30T15:48:58;24.20;92.70
51486;DHT22;37565;51.352;6.412;2022-08-30T15:51:29;24.20;92.80
51486;DHT22;37565;51.352;6.412;2022-08-30T15:54:09;24.20;92.70
51486;DHT22;37565;51.352;6.412;2022-08-30T15:56:38;24.20;92.80
51486;DHT22;37565;51.352;6.412;2022-08-30T15:59:08;24.20;92.70
51486;DHT22;37565;51.352;6.412;2022-08-30T16:01:37;24.20;92.80
51486;DHT22;37565;51.352;6.412;2022-08-30T16:04:06;24.20;93.00
51486;DHT22;37565;51.352;6.412;2022-08-30T16:06:39;24.20;92.80
51486;DHT22;37565;51.352;6.412;2022-08-30T16:09:08;24.20;92.80
51486;DHT22;37565;51.352;6.412;2022-08-30T16:11:37;24.20;92.80
51486;DHT22;37565;51.352;6.412;2022-08-30T16:14:05;24.20;92.80
51486;DHT22;37565;51.352;6.412;2022-08-30T16:16:38;24.20;92.80
51486;DHT22;37565;51.352;6.412;2022-08-30T16:19:08;24.20;92.80
51486;DHT22;37565;51.352;6.412;2022-08-30T16:21:37;24.20;92.70
51486;DHT22;37565;51.352;6.412;2022-08-30T16:24:08;24.20;92.80
51486;DHT22;37565;51.352;6.412;2022-08-30T16:26:40;24.20;92.80